createdAt,value
2023-06-26T00:01:06.468Z,34.13
2023-06-26T00:03:34.025Z,34.10
2023-06-26T00:06:01.709Z,34.08
2023-06-26T00:08:29.358Z,34.02
2023-06-26T00:10:56.121Z,33.99
2023-06-26T00:13:24.369Z,33.92
2023-06-26T00:15:51.955Z,33.83
2023-06-26T00:18:18.515Z,33.88
2023-06-26T00:20:45.134Z,33.80
2023-06-26T00:23:14.072Z,33.88
2023-06-26T00:25:40.635Z,33.87
2023-06-26T00:28:07.244Z,33.75
2023-06-26T00:30:33.811Z,33.76
2023-06-26T00:33:00.393Z,33.65
2023-06-26T00:35:27.255Z,33.56
2023-06-26T00:37:53.841Z,33.69
2023-06-26T00:40:20.410Z,33.44
2023-06-26T00:42:47.274Z,33.52
2023-06-26T00:45:15.051Z,33.54
2023-06-26T00:47:42.362Z,33.58
2023-06-26T00:50:09.487Z,33.71
2023-06-26T00:52:36.272Z,33.64
2023-06-26T00:55:03.445Z,33.65
2023-06-26T00:57:31.770Z,33.74
2023-06-26T01:00:01.667Z,33.67
2023-06-26T01:02:34.743Z,33.73
2023-06-26T01:05:07.187Z,33.66
2023-06-26T01:07:37.258Z,33.67
2023-06-26T01:10:07.976Z,33.66
2023-06-26T01:12:34.781Z,33.52
2023-06-26T01:15:01.842Z,33.58
2023-06-26T01:17:32.362Z,33.43
2023-06-26T01:20:09.006Z,33.39
2023-06-26T01:23:06.888Z,33.44
2023-06-26T01:25:41.575Z,33.36
2023-06-26T01:28:12.611Z,33.31
2023-06-26T01:30:45.314Z,33.39
2023-06-26T01:33:13.849Z,33.40
2023-06-26T01:35:41.341Z,33.21
2023-06-26T01:38:21.585Z,33.24
2023-06-26T01:40:48.325Z,33.19
2023-06-26T01:43:54.479Z,33.26
2023-06-26T01:46:26.645Z,32.99
2023-06-26T01:49:04.037Z,32.96
2023-06-26T01:51:42.968Z,32.90
2023-06-26T01:54:14.489Z,32.94
2023-06-26T01:56:43.517Z,32.72
2023-06-26T01:59:11.593Z,32.40
2023-06-26T02:01:38.261Z,32.25
2023-06-26T02:04:05.244Z,32.07
2023-06-26T02:06:32.144Z,32.26
2023-06-26T02:08:59.602Z,32.39
2023-06-26T02:11:26.622Z,32.38
2023-06-26T02:13:53.245Z,32.35
2023-06-26T02:16:20.162Z,32.26
2023-06-26T02:18:47.156Z,32.12
2023-06-26T02:21:14.340Z,32.00
2023-06-26T02:23:40.971Z,32.14
2023-06-26T02:26:07.840Z,32.26
2023-06-26T02:28:35.637Z,32.29
2023-06-26T02:31:02.240Z,32.27
2023-06-26T02:33:28.873Z,32.31
2023-06-26T02:35:55.422Z,32.26
2023-06-26T02:38:22.286Z,32.33
2023-06-26T02:40:48.891Z,32.54
2023-06-26T02:43:17.358Z,32.54
2023-06-26T02:45:44.949Z,32.59
2023-06-26T02:48:12.143Z,32.48
2023-06-26T02:50:47.789Z,32.59
2023-06-26T02:53:15.364Z,32.71
2023-06-26T02:55:44.815Z,32.63
2023-06-26T02:58:11.774Z,32.59
2023-06-26T03:00:42.419Z,32.63
2023-06-26T03:03:11.851Z,32.79
2023-06-26T03:05:38.887Z,32.62
2023-06-26T03:08:06.067Z,32.81
2023-06-26T03:10:33.394Z,32.64
2023-06-26T03:13:00.410Z,32.58
2023-06-26T03:15:27.720Z,32.67
2023-06-26T03:17:55.071Z,32.49
2023-06-26T03:20:25.762Z,32.54
2023-06-26T03:22:57.663Z,32.56
2023-06-26T03:25:24.478Z,32.44
2023-06-26T03:27:58.925Z,32.41
2023-06-26T03:30:27.068Z,32.35
2023-06-26T03:32:56.088Z,32.48
2023-06-26T03:35:23.372Z,32.50
2023-06-26T03:37:50.416Z,32.69
2023-06-26T03:40:17.358Z,32.64
2023-06-26T03:42:44.748Z,32.67
2023-06-26T03:45:11.687Z,32.72
2023-06-26T03:47:38.966Z,32.57
2023-06-26T03:50:06.385Z,32.60
2023-06-26T03:52:33.378Z,32.63
2023-06-26T03:55:00.398Z,32.66
2023-06-26T03:57:27.001Z,32.72
2023-06-26T03:59:54.350Z,32.58
2023-06-26T04:02:22.257Z,32.54
2023-06-26T04:04:48.866Z,32.42
2023-06-26T04:07:15.605Z,32.55
2023-06-26T04:09:42.757Z,32.28
2023-06-26T04:12:09.533Z,32.08
2023-06-26T04:14:36.113Z,32.29
2023-06-26T04:17:04.241Z,31.80
2023-06-26T04:19:31.365Z,31.67
2023-06-26T04:21:58.324Z,32.10
2023-06-26T04:24:24.927Z,31.98
2023-06-26T04:26:51.892Z,31.86
2023-06-26T04:29:18.684Z,31.95
2023-06-26T04:31:47.527Z,31.84
2023-06-26T04:34:14.828Z,31.87
2023-06-26T04:36:41.468Z,31.68
2023-06-26T04:39:08.036Z,31.76
2023-06-26T04:41:34.696Z,30.99
2023-06-26T04:44:01.275Z,31.32
2023-06-26T04:46:28.929Z,31.52
2023-06-26T04:48:55.700Z,32.05
2023-06-26T04:51:22.262Z,32.25
2023-06-26T04:53:48.855Z,32.00
2023-06-26T04:56:15.441Z,32.31
2023-06-26T04:58:42.248Z,32.51
2023-06-26T05:01:09.041Z,32.40
2023-06-26T05:03:36.571Z,32.75
2023-06-26T05:06:09.189Z,32.93
2023-06-26T05:08:36.505Z,32.94
2023-06-26T05:11:03.688Z,32.38
2023-06-26T05:13:30.427Z,32.75
2023-06-26T05:15:57.048Z,33.61
2023-06-26T05:18:24.003Z,34.87
2023-06-26T05:20:50.816Z,36.00
2023-06-26T05:23:17.582Z,37.61
2023-06-26T05:25:44.394Z,38.83
2023-06-26T05:28:13.338Z,40.01
2023-06-26T05:30:40.588Z,41.07
2023-06-26T05:33:09.114Z,41.97
2023-06-26T05:35:37.420Z,42.64
2023-06-26T05:38:04.395Z,43.20
2023-06-26T05:40:31.327Z,43.68
2023-06-26T05:42:58.243Z,44.54
2023-06-26T05:45:25.053Z,44.46
2023-06-26T05:47:51.847Z,45.34
2023-06-26T05:50:18.893Z,45.93
2023-06-26T05:52:46.344Z,46.10
2023-06-26T05:55:14.256Z,46.19
2023-06-26T05:57:41.603Z,46.65
2023-06-26T06:00:12.134Z,46.58
2023-06-26T06:02:43.738Z,46.75
2023-06-26T06:05:10.836Z,47.01
2023-06-26T06:07:37.988Z,47.23
2023-06-26T06:10:05.142Z,47.72
2023-06-26T06:12:31.958Z,48.36
2023-06-26T06:14:58.937Z,48.04
2023-06-26T06:17:25.657Z,46.25
2023-06-26T06:19:52.280Z,45.24
2023-06-26T06:22:18.914Z,46.01
2023-06-26T06:24:46.027Z,46.74
2023-06-26T06:27:12.626Z,47.87
2023-06-26T06:29:39.666Z,47.70
2023-06-26T06:32:06.701Z,46.66
2023-06-26T06:34:33.337Z,45.95
2023-06-26T06:37:00.098Z,46.63
2023-06-26T06:39:27.190Z,46.53
2023-06-26T06:41:53.880Z,47.57
2023-06-26T06:44:22.405Z,47.90
2023-06-26T06:46:49.696Z,48.74
2023-06-26T06:49:16.296Z,49.42
2023-06-26T06:51:42.961Z,49.33
2023-06-26T06:54:09.541Z,49.18
2023-06-26T06:56:36.667Z,50.14
2023-06-26T06:59:03.619Z,50.49
2023-06-26T07:01:30.250Z,50.11
2023-06-26T07:03:56.928Z,49.98
2023-06-26T07:06:23.600Z,50.41
2023-06-26T07:08:50.912Z,50.10
2023-06-26T07:11:17.512Z,50.01
2023-06-26T07:13:45.353Z,49.40
2023-06-26T07:16:13.272Z,48.01
2023-06-26T07:18:40.195Z,48.45
2023-06-26T07:21:07.528Z,47.26
2023-06-26T07:23:34.110Z,47.77
2023-06-26T07:26:01.189Z,48.70
2023-06-26T07:28:28.680Z,48.38
2023-06-26T07:30:55.578Z,49.31
2023-06-26T07:33:22.166Z,49.41
2023-06-26T07:35:49.420Z,49.97
2023-06-26T07:38:16.110Z,49.76
2023-06-26T07:40:42.702Z,49.93
2023-06-26T07:43:09.276Z,50.19
2023-06-26T07:45:36.259Z,50.51
2023-06-26T07:48:03.315Z,50.70
2023-06-26T07:50:30.140Z,49.99
2023-06-26T07:52:56.876Z,48.90
2023-06-26T07:55:23.932Z,47.34
2023-06-26T07:57:53.478Z,47.79
2023-06-26T08:00:20.157Z,47.92
2023-06-26T08:02:46.851Z,48.48
2023-06-26T08:05:13.492Z,48.27
2023-06-26T08:07:40.489Z,48.40
2023-06-26T08:10:07.329Z,48.53
2023-06-26T08:12:33.898Z,48.58
2023-06-26T08:15:01.963Z,47.89
2023-06-26T08:17:30.428Z,47.61
2023-06-26T08:19:57.286Z,47.22
2023-06-26T08:22:24.842Z,45.92
2023-06-26T08:24:51.415Z,45.76
2023-06-26T08:27:18.011Z,45.64
2023-06-26T08:29:44.886Z,45.50
2023-06-26T08:32:11.758Z,46.11
2023-06-26T08:34:38.789Z,46.51
2023-06-26T08:37:05.662Z,46.78
2023-06-26T08:39:33.992Z,46.18
2023-06-26T08:42:00.691Z,45.91
2023-06-26T08:44:27.512Z,46.32
2023-06-26T08:46:54.534Z,46.30
2023-06-26T08:49:40.131Z,46.20
2023-06-26T08:55:12.455Z,45.70
2023-06-26T08:57:39.695Z,46.00
2023-06-26T09:00:09.507Z,45.93
2023-06-26T09:02:37.842Z,46.06
2023-06-26T09:05:04.756Z,45.77
2023-06-26T09:07:31.487Z,44.90
2023-06-26T09:09:58.524Z,44.54
2023-06-26T09:12:28.017Z,44.60
2023-06-26T09:14:57.624Z,43.23
2023-06-26T09:17:31.414Z,42.92
2023-06-26T09:19:57.999Z,42.65
2023-06-26T09:22:24.953Z,42.85
2023-06-26T09:24:52.660Z,43.64
2023-06-26T09:27:19.647Z,41.84
2023-06-26T09:29:48.016Z,42.02
2023-06-26T09:32:14.783Z,40.93
2023-06-26T09:34:44.565Z,41.48
2023-06-26T09:37:14.649Z,41.16
2023-06-26T09:39:41.256Z,41.66
2023-06-26T09:42:08.245Z,41.30
2023-06-26T09:44:34.965Z,40.93
2023-06-26T09:47:04.922Z,40.11
2023-06-26T09:49:32.198Z,38.70
2023-06-26T09:52:01.849Z,37.46
2023-06-26T09:54:30.172Z,36.17
2023-06-26T09:57:07.660Z,35.48
2023-06-26T09:59:34.419Z,34.76
2023-06-26T10:02:01.406Z,34.10
2023-06-26T10:04:28.231Z,34.52
2023-06-26T10:06:59.889Z,34.12
2023-06-26T10:09:29.326Z,34.60
2023-06-26T10:11:58.752Z,34.82
2023-06-26T10:14:29.090Z,35.06
2023-06-26T10:16:59.601Z,34.90
2023-06-26T10:19:28.386Z,34.65
2023-06-26T10:21:56.359Z,34.82
2023-06-26T10:24:24.951Z,35.40
2023-06-26T10:26:56.369Z,35.91
2023-06-26T10:29:24.505Z,35.82
2023-06-26T10:31:55.982Z,36.02
2023-06-26T10:34:23.037Z,36.45
2023-06-26T10:37:00.005Z,36.90
2023-06-26T10:39:27.251Z,36.78
2023-06-26T10:42:04.977Z,36.72
2023-06-26T10:44:44.803Z,36.49
2023-06-26T10:47:33.625Z,36.54
2023-06-26T10:50:24.616Z,37.29
2023-06-26T10:53:27.885Z,37.65
2023-06-26T10:56:06.983Z,38.40
2023-06-26T10:58:43.412Z,38.82
2023-06-26T11:01:16.804Z,39.60
2023-06-26T11:03:47.515Z,38.91
2023-06-26T11:06:15.714Z,39.06
2023-06-26T11:09:07.610Z,38.35
2023-06-26T11:11:52.919Z,37.56
2023-06-26T11:14:21.248Z,36.80
2023-06-26T11:16:48.293Z,36.49
2023-06-26T11:19:15.511Z,35.71
2023-06-26T11:21:42.073Z,35.26
2023-06-26T11:24:09.574Z,35.37
2023-06-26T11:26:44.023Z,36.11
2023-06-26T11:29:11.948Z,35.28
2023-06-26T11:31:40.467Z,35.58
2023-06-26T11:34:10.627Z,36.05
2023-06-26T11:36:38.145Z,36.77
2023-06-26T11:39:09.542Z,36.93
2023-06-26T11:41:37.423Z,37.18
2023-06-26T11:44:06.662Z,37.51
2023-06-26T11:46:35.570Z,37.55
2023-06-26T11:49:06.176Z,37.75
2023-06-26T11:51:33.312Z,37.45
2023-06-26T11:54:04.028Z,37.45
2023-06-26T11:56:31.179Z,37.98
2023-06-26T11:59:06.729Z,37.98
2023-06-26T12:01:48.186Z,37.98
2023-06-26T12:04:18.756Z,37.97
2023-06-26T12:06:51.492Z,38.12
2023-06-26T12:09:20.029Z,37.57
2023-06-26T12:11:51.924Z,36.20
2023-06-26T12:14:21.213Z,36.21
2023-06-26T12:16:48.290Z,36.01
2023-06-26T12:19:15.474Z,35.65
2023-06-26T12:21:42.145Z,35.67
2023-06-26T12:24:11.633Z,35.77
2023-06-26T12:26:38.710Z,36.64
2023-06-26T12:29:12.454Z,36.31
2023-06-26T12:31:49.650Z,36.27
2023-06-26T12:34:21.049Z,36.25
2023-06-26T12:36:51.922Z,36.92
2023-06-26T12:39:20.160Z,36.55
2023-06-26T12:41:53.725Z,36.42
2023-06-26T12:44:26.370Z,36.11
2023-06-26T12:46:58.373Z,35.93
2023-06-26T12:49:35.692Z,35.74
2023-06-26T12:52:05.536Z,35.37
2023-06-26T12:54:32.905Z,35.65
2023-06-26T12:56:59.781Z,35.60
2023-06-26T12:59:26.738Z,35.72
2023-06-26T13:01:53.693Z,35.36
2023-06-26T13:04:20.429Z,35.84
2023-06-26T13:06:47.201Z,37.18
2023-06-26T13:09:14.066Z,36.91
2023-06-26T13:11:40.656Z,37.67
2023-06-26T13:14:11.006Z,37.99
2023-06-26T13:16:38.177Z,38.60
2023-06-26T13:19:05.103Z,39.04
2023-06-26T13:21:31.959Z,39.48
2023-06-26T13:23:58.902Z,39.03
2023-06-26T13:26:36.911Z,38.22
2023-06-26T13:29:04.787Z,38.15
2023-06-26T13:31:32.003Z,38.27
2023-06-26T13:33:59.764Z,38.61
2023-06-26T13:36:27.332Z,38.63
2023-06-26T13:38:56.888Z,39.10
2023-06-26T13:41:24.964Z,38.84
2023-06-26T13:43:53.928Z,39.03
2023-06-26T13:46:22.849Z,38.52
2023-06-26T13:48:49.794Z,37.31
2023-06-26T13:51:16.662Z,37.17
2023-06-26T13:53:43.259Z,36.53
2023-06-26T13:56:09.890Z,35.28
2023-06-26T13:58:37.417Z,35.11
2023-06-26T14:01:08.127Z,35.81
2023-06-26T14:03:35.516Z,36.07
2023-06-26T14:06:02.112Z,35.78
2023-06-26T14:08:29.075Z,35.29
2023-06-26T14:10:55.702Z,35.82
2023-06-26T14:13:24.050Z,35.77
2023-06-26T14:15:53.862Z,35.87
2023-06-26T14:18:21.990Z,36.13
2023-06-26T14:20:49.154Z,35.90
2023-06-26T14:23:16.070Z,35.98
2023-06-26T14:25:42.657Z,36.30
2023-06-26T14:28:09.571Z,36.46
2023-06-26T14:30:36.201Z,36.49
2023-06-26T14:33:02.889Z,36.45
2023-06-26T14:35:29.513Z,36.89
2023-06-26T14:37:56.241Z,37.39
2023-06-26T14:40:23.036Z,37.27
2023-06-26T14:42:50.886Z,37.37
2023-06-26T14:45:17.917Z,37.41
2023-06-26T14:47:45.704Z,37.36
2023-06-26T14:50:12.315Z,37.03
2023-06-26T14:52:38.903Z,37.25
2023-06-26T14:55:07.939Z,37.27
2023-06-26T14:57:35.930Z,37.05
2023-06-26T15:00:02.883Z,36.27
2023-06-26T15:02:29.532Z,34.46
2023-06-26T15:04:56.185Z,34.43
2023-06-26T15:07:22.822Z,34.79
2023-06-26T15:09:49.709Z,35.22
2023-06-26T15:12:16.510Z,34.72
2023-06-26T15:14:43.097Z,34.86
2023-06-26T15:17:10.055Z,34.71
2023-06-26T15:19:37.646Z,34.36
2023-06-26T15:22:04.495Z,35.36
2023-06-26T15:24:31.328Z,35.03
2023-06-26T15:26:57.923Z,34.17
2023-06-26T15:29:24.827Z,33.59
2023-06-26T15:31:51.893Z,33.66
2023-06-26T15:34:18.809Z,33.13
2023-06-26T15:36:45.697Z,33.10
2023-06-26T15:39:12.751Z,33.38
2023-06-26T15:41:39.517Z,33.79
2023-06-26T15:44:06.087Z,32.92
2023-06-26T15:46:32.754Z,32.92
2023-06-26T15:48:59.508Z,32.01
2023-06-26T15:51:26.175Z,32.31
2023-06-26T15:53:52.879Z,31.62
2023-06-26T15:56:20.032Z,31.19
2023-06-26T15:58:47.836Z,30.90
2023-06-26T16:01:15.389Z,31.89
2023-06-26T16:03:42.642Z,31.26
2023-06-26T16:06:10.868Z,31.60
2023-06-26T16:08:38.524Z,31.57
2023-06-26T16:11:06.333Z,32.38
2023-06-26T16:13:33.981Z,32.32
2023-06-26T16:16:01.224Z,32.19
2023-06-26T16:18:27.895Z,32.60
2023-06-26T16:20:55.176Z,32.95
2023-06-26T16:23:23.600Z,32.48
2023-06-26T16:25:51.042Z,32.40
2023-06-26T16:28:17.829Z,31.50
2023-06-26T16:30:45.189Z,31.36
2023-06-26T16:33:11.969Z,31.80
2023-06-26T16:35:39.157Z,31.55
2023-06-26T16:38:10.508Z,31.34
2023-06-26T16:40:38.223Z,31.51
2023-06-26T16:43:06.088Z,31.89
2023-06-26T16:45:32.869Z,32.18
2023-06-26T16:47:59.848Z,31.56
2023-06-26T16:50:26.436Z,31.84
2023-06-26T16:52:53.352Z,32.02
2023-06-26T16:55:20.883Z,31.97
2023-06-26T16:57:47.438Z,31.50
2023-06-26T17:00:15.139Z,31.82
2023-06-26T17:02:42.070Z,31.46
2023-06-26T17:05:08.980Z,31.78
2023-06-26T17:07:38.032Z,32.18
2023-06-26T17:10:05.788Z,31.76
2023-06-26T17:12:32.418Z,31.43
2023-06-26T17:15:01.351Z,32.29
2023-06-26T17:17:28.124Z,31.95
2023-06-26T17:19:55.508Z,32.08
2023-06-26T17:22:26.351Z,32.28
2023-06-26T17:24:59.316Z,32.33
2023-06-26T17:27:28.792Z,31.76
2023-06-26T17:29:55.819Z,31.64
2023-06-26T17:32:24.377Z,31.41
2023-06-26T17:34:51.532Z,31.98
2023-06-26T17:37:19.083Z,32.25
2023-06-26T17:39:46.362Z,31.75
2023-06-26T17:42:12.970Z,31.86
2023-06-26T17:44:39.985Z,32.36
2023-06-26T17:47:06.935Z,31.78
2023-06-26T17:49:33.569Z,32.10
2023-06-26T17:52:02.024Z,31.68
2023-06-26T17:54:29.057Z,32.19
2023-06-26T17:56:55.708Z,32.50
2023-06-26T17:59:22.344Z,32.03
2023-06-26T18:01:48.955Z,31.36
2023-06-26T18:04:15.931Z,31.38
2023-06-26T18:06:42.586Z,31.66
2023-06-26T18:09:09.532Z,31.85
2023-06-26T18:11:36.786Z,32.02
2023-06-26T18:14:03.696Z,31.72
2023-06-26T18:16:31.394Z,31.51
2023-06-26T18:19:01.374Z,31.12
2023-06-26T18:21:28.573Z,31.23
2023-06-26T18:23:56.091Z,31.39
2023-06-26T18:26:23.172Z,31.61
2023-06-26T18:28:52.545Z,30.77
2023-06-26T18:31:21.162Z,31.33
2023-06-26T18:33:48.181Z,31.36
2023-06-26T18:36:16.294Z,30.76
2023-06-26T18:38:43.866Z,31.02
2023-06-26T18:41:11.483Z,31.09
2023-06-26T18:43:43.790Z,30.80
2023-06-26T18:46:11.869Z,30.72
2023-06-26T18:48:38.450Z,30.87
2023-06-26T18:51:05.298Z,31.31
2023-06-26T18:53:33.363Z,31.39
2023-06-26T18:56:00.290Z,31.23
2023-06-26T18:58:27.206Z,30.67
2023-06-26T19:00:53.867Z,30.21
2023-06-26T19:03:20.805Z,29.75
2023-06-26T19:05:47.378Z,29.71
2023-06-26T19:08:14.968Z,29.34
2023-06-26T19:10:42.828Z,29.91
2023-06-26T19:13:10.144Z,29.86
2023-06-26T19:15:36.915Z,29.81
2023-06-26T19:18:03.693Z,29.75
2023-06-26T19:20:30.569Z,30.11
2023-06-26T19:22:57.396Z,30.01
2023-06-26T19:25:24.320Z,30.01
2023-06-26T19:27:50.925Z,30.41
2023-06-26T19:30:17.843Z,30.52
2023-06-26T19:32:46.629Z,30.25
2023-06-26T19:35:14.820Z,30.07
2023-06-26T19:37:56.155Z,30.28
2023-06-26T19:40:32.697Z,30.40
2023-06-26T19:42:59.319Z,30.28
2023-06-26T19:45:27.756Z,29.94
2023-06-26T19:47:55.232Z,29.43
2023-06-26T19:50:22.119Z,29.53
2023-06-26T19:52:49.495Z,29.87
2023-06-26T19:55:16.925Z,29.68
2023-06-26T19:57:44.588Z,29.58
2023-06-26T20:00:12.037Z,29.28
2023-06-26T20:02:38.855Z,29.38
2023-06-26T20:05:05.889Z,29.15
2023-06-26T20:07:33.085Z,29.58
2023-06-26T20:10:00.369Z,29.06
2023-06-26T20:12:26.938Z,29.25
2023-06-26T20:14:53.573Z,29.54
2023-06-26T20:17:20.380Z,29.66
2023-06-26T20:19:47.206Z,29.73
2023-06-26T20:22:14.688Z,29.59
2023-06-26T20:24:41.231Z,30.06
2023-06-26T20:27:08.056Z,30.07
2023-06-26T20:29:36.336Z,30.13
2023-06-26T20:32:05.146Z,30.12
2023-06-26T20:34:32.043Z,30.12
2023-06-26T20:36:58.847Z,30.05
2023-06-26T20:39:29.096Z,29.90
2023-06-26T20:41:56.250Z,30.03
2023-06-26T20:44:23.438Z,30.02
2023-06-26T20:46:57.320Z,30.20
2023-06-26T20:49:24.470Z,30.03
2023-06-26T20:51:56.990Z,30.01
2023-06-26T20:54:24.903Z,30.05
2023-06-26T20:56:51.463Z,30.16
2023-06-26T20:59:18.069Z,30.01
2023-06-26T21:01:44.667Z,30.23
2023-06-26T21:04:11.243Z,30.29
2023-06-26T21:06:38.995Z,30.03
2023-06-26T21:09:06.108Z,29.98
2023-06-26T21:11:32.712Z,29.59
2023-06-26T21:13:59.275Z,29.61
2023-06-26T21:16:26.343Z,29.78
2023-06-26T21:18:52.943Z,29.69
2023-06-26T21:21:19.551Z,28.97
2023-06-26T21:23:46.364Z,29.04
2023-06-26T21:26:12.945Z,29.03
2023-06-26T21:28:39.832Z,28.80
2023-06-26T21:31:06.532Z,29.14
2023-06-26T21:33:34.808Z,29.27
2023-06-26T21:36:01.376Z,29.26
2023-06-26T21:38:28.235Z,29.19
2023-06-26T21:40:55.251Z,29.15
2023-06-26T21:43:21.889Z,29.26
2023-06-26T21:45:49.576Z,29.18
2023-06-26T21:48:16.553Z,29.10
2023-06-26T21:50:43.700Z,28.98
2023-06-26T21:53:10.312Z,28.96
2023-06-26T21:55:37.309Z,28.99
2023-06-26T21:58:04.045Z,29.05
2023-06-26T22:00:31.017Z,28.77
2023-06-26T22:02:57.637Z,28.75
2023-06-26T22:05:24.315Z,28.65
2023-06-26T22:07:55.908Z,28.68
2023-06-26T22:10:24.519Z,28.58
2023-06-26T22:12:51.670Z,28.60
2023-06-26T22:15:18.318Z,28.77
2023-06-26T22:18:03.397Z,28.82
2023-06-26T22:20:30.068Z,28.71
2023-06-26T22:22:56.831Z,28.73
2023-06-26T22:25:23.755Z,28.62
2023-06-26T22:27:52.037Z,28.58
2023-06-26T22:30:19.649Z,28.63
2023-06-26T22:32:47.733Z,28.58
2023-06-26T22:35:15.245Z,28.38
2023-06-26T22:37:43.216Z,28.23
2023-06-26T22:40:11.254Z,28.34
2023-06-26T22:42:39.581Z,28.26
2023-06-26T22:45:07.787Z,28.34
2023-06-26T22:47:36.994Z,28.28
2023-06-26T22:50:06.509Z,28.26
2023-06-26T22:52:33.696Z,28.11
2023-06-26T22:55:00.704Z,28.15
2023-06-26T22:57:28.000Z,28.04
2023-06-26T22:59:54.622Z,28.00
2023-06-26T23:02:21.394Z,27.94
2023-06-26T23:04:48.504Z,27.92
2023-06-26T23:07:15.882Z,27.90
2023-06-26T23:09:43.192Z,27.84
2023-06-26T23:12:10.462Z,27.69
2023-06-26T23:14:37.216Z,27.69
2023-06-26T23:17:07.017Z,27.59
2023-06-26T23:19:35.372Z,27.54
2023-06-26T23:22:02.679Z,27.41
2023-06-26T23:24:34.018Z,27.41
2023-06-26T23:27:00.941Z,27.18
2023-06-26T23:29:27.824Z,27.30
2023-06-26T23:31:54.850Z,27.24
2023-06-26T23:34:21.430Z,27.04
2023-06-26T23:36:51.515Z,26.81
2023-06-26T23:39:21.432Z,26.75
2023-06-26T23:41:50.903Z,26.62
2023-06-26T23:44:20.974Z,26.51
2023-06-26T23:46:47.982Z,26.52
2023-06-26T23:49:14.964Z,26.88
2023-06-26T23:51:41.614Z,26.55
2023-06-26T23:54:08.205Z,26.81
2023-06-26T23:56:35.568Z,26.94
2023-06-26T23:59:02.248Z,26.90
